Time;durP1;ratioP1;P1;durP2;ratioP2;P2;SDS_P1;SDS_P2;PMS_P1;PMS_P2;Temp;Humidity;BMP_temperature;BMP_pressure;BME280_temperature;BME280_humidity;BME280_pressure;Samples;Min_cycle;Max_cycle;Signal;HPM_P1;HPM_P2
2022/10/27 00:02:26;;;;;;;7.03;6.30;;;;;;;;;;5033384;28;20448;-61
2022/10/27 00:04:53;;;;;;;8.13;5.97;;;;;;;;;;5033571;28;20444;-61
2022/10/27 00:07:20;;;;;;;6.70;5.70;;;;;;;;;;5033355;28;20445;-62
2022/10/27 00:09:49;;;;;;;8.83;7.60;;;;;;;;;;5033143;28;20472;-62
2022/10/27 00:12:16;;;;;;;9.70;6.40;;;;;;;;;;5033413;28;20451;-61
2022/10/27 00:14:43;;;;;;;9.27;6.20;;;;;;;;;;5033220;28;20476;-61
2022/10/27 00:17:10;;;;;;;7.47;6.00;;;;;;;;;;5033233;28;20450;-61
2022/10/27 00:19:37;;;;;;;11.23;6.17;;;;;;;;;;5033155;28;20475;-61
2022/10/27 00:22:04;;;;;;;11.23;5.80;;;;;;;;;;5032850;28;20452;-61
2022/10/27 00:24:31;;;;;;;14.93;6.57;;;;;;;;;;5033079;28;20452;-61
2022/10/27 00:27:00;;;;;;;7.77;6.10;;;;;;;;;;5036271;28;20919;-61
2022/10/27 00:29:27;;;;;;;6.40;5.37;;;;;;;;;;5037247;28;20841;-61
2022/10/27 00:31:54;;;;;;;10.00;5.50;;;;;;;;;;5036982;28;20948;-61
2022/10/27 00:34:21;;;;;;;6.13;5.40;;;;;;;;;;5037304;28;20449;-61
2022/10/27 00:36:48;;;;;;;7.17;5.53;;;;;;;;;;5037011;28;20836;-61
2022/10/27 00:39:15;;;;;;;8.40;5.30;;;;;;;;;;5036971;28;20469;-62
2022/10/27 00:41:43;;;;;;;7.50;4.90;;;;;;;;;;5037121;28;20452;-61
2022/10/27 00:44:33;;;;;;;6.33;5.20;;;;;;;;;;5036920;28;20452;-61
2022/10/27 00:47:02;;;;;;;9.27;5.37;;;;;;;;;;5036859;28;20801;-61
2022/10/27 00:49:30;;;;;;;6.83;5.00;;;;;;;;;;5067583;22;20486;-65
2022/10/27 00:51:59;;;;;;;5.60;5.00;;;;;;;;;;5057524;28;20465;-64
2022/10/27 00:54:28;;;;;;;8.40;6.00;;;;;;;;;;5057388;28;20441;-65
2022/10/27 00:56:55;;;;;;;5.30;4.50;;;;;;;;;;5057952;28;20439;-64
2022/10/27 00:59:23;;;;;;;5.27;4.80;;;;;;;;;;5058258;28;20995;-65
2022/10/27 01:01:51;;;;;;;8.80;6.80;;;;;;;;;;5058104;28;20443;-65
2022/10/27 01:04:20;;;;;;;8.07;6.07;;;;;;;;;;5059143;28;20450;-65
2022/10/27 01:06:48;;;;;;;5.73;4.90;;;;;;;;;;5064390;28;20446;-65
2022/10/27 01:09:15;;;;;;;6.80;5.27;;;;;;;;;;5061505;28;20824;-66
2022/10/27 01:11:42;;;;;;;10.37;5.53;;;;;;;;;;5058090;28;20463;-66
2022/10/27 01:14:09;;;;;;;5.57;4.30;;;;;;;;;;5057122;28;20477;-64
2022/10/27 01:16:41;;;;;;;7.70;4.33;;;;;;;;;;5056772;28;20492;-65
2022/10/27 01:19:18;;;;;;;5.40;4.90;;;;;;;;;;5056860;28;20456;-65
2022/10/27 01:21:55;;;;;;;7.20;4.70;;;;;;;;;;5057222;28;20448;-64
2022/10/27 01:24:32;;;;;;;8.23;5.00;;;;;;;;;;5058122;28;20991;-65
2022/10/27 01:27:02;;;;;;;6.37;5.67;;;;;;;;;;5065139;28;20425;-65
2022/10/27 01:29:56;;;;;;;7.97;5.60;;;;;;;;;;5064858;28;20985;-65
2022/10/27 01:32:27;;;;;;;5.73;4.70;;;;;;;;;;5066982;28;20431;-65
2022/10/27 01:34:58;;;;;;;7.90;4.43;;;;;;;;;;5069242;28;20432;-65
2022/10/27 01:37:28;;;;;;;8.00;4.93;;;;;;;;;;5063174;28;20486;-65
2022/10/27 01:39:59;;;;;;;7.30;4.20;;;;;;;;;;5060315;28;20466;-65
2022/10/27 01:42:29;;;;;;;7.47;5.00;;;;;;;;;;5059135;28;20843;-65
2022/10/27 01:44:57;;;;;;;6.27;4.83;;;;;;;;;;5056280;28;20446;-65
2022/10/27 01:47:26;;;;;;;6.10;5.17;;;;;;;;;;5055976;28;20450;-65
2022/10/27 01:49:54;;;;;;;9.03;4.20;;;;;;;;;;5055736;28;20494;-65
2022/10/27 01:52:39;;;;;;;9.17;5.60;;;;;;;;;;5056052;28;20447;-65
2022/10/27 01:55:07;;;;;;;5.80;5.20;;;;;;;;;;5055756;28;20450;-65
2022/10/27 01:57:37;;;;;;;6.90;5.13;;;;;;;;;;5055767;28;20451;-65
2022/10/27 02:00:05;;;;;;;7.23;5.53;;;;;;;;;;5055581;28;20470;-64
2022/10/27 02:02:40;;;;;;;7.47;4.57;;;;;;;;;;5055376;28;20465;-64
2022/10/27 02:05:10;;;;;;;6.63;5.03;;;;;;;;;;5055571;28;20435;-64
2022/10/27 02:07:42;;;;;;;6.90;4.80;;;;;;;;;;5055641;28;20813;-64
2022/10/27 02:10:13;;;;;;;5.17;4.70;;;;;;;;;;5055549;28;20498;-64
2022/10/27 02:12:41;;;;;;;8.10;4.83;;;;;;;;;;5055340;28;20439;-65
2022/10/27 02:15:14;;;;;;;10.10;4.83;;;;;;;;;;5055178;28;20442;-65
2022/10/27 02:17:44;;;;;;;4.73;4.20;;;;;;;;;;5055365;28;20903;-64
2022/10/27 02:20:14;;;;;;;6.20;4.30;;;;;;;;;;5055186;28;20469;-64
2022/10/27 02:22:42;;;;;;;6.90;4.20;;;;;;;;;;5055516;28;20819;-64
2022/10/27 02:25:09;;;;;;;5.20;4.40;;;;;;;;;;5057880;28;20449;-65
2022/10/27 02:27:38;;;;;;;6.40;4.90;;;;;;;;;;5056617;28;20454;-65
2022/10/27 02:30:06;;;;;;;6.87;4.60;;;;;;;;;;5056221;28;20462;-64
2022/10/27 02:32:34;;;;;;;6.17;4.20;;;;;;;;;;5055801;28;20451;-65
2022/10/27 02:35:04;;;;;;;6.63;4.40;;;;;;;;;;5055504;28;20454;-65
2022/10/27 02:37:32;;;;;;;6.17;4.57;;;;;;;;;;5055953;28;20540;-65
2022/10/27 02:39:59;;;;;;;12.40;4.83;;;;;;;;;;5054966;28;21007;-65
2022/10/27 02:42:26;;;;;;;5.03;4.53;;;;;;;;;;5054582;28;20439;-65
2022/10/27 02:44:54;;;;;;;10.63;4.77;;;;;;;;;;5054979;28;20455;-65
2022/10/27 02:47:21;;;;;;;8.97;4.60;;;;;;;;;;5054942;28;20447;-65
2022/10/27 02:49:48;;;;;;;8.10;4.67;;;;;;;;;;5052961;28;20505;-65
2022/10/27 02:52:16;;;;;;;6.80;5.10;;;;;;;;;;5055003;28;20477;-65
2022/10/27 02:54:46;;;;;;;8.10;4.83;;;;;;;;;;5054391;28;20458;-65
2022/10/27 02:57:14;;;;;;;6.83;4.40;;;;;;;;;;5056016;28;20479;-65
2022/10/27 02:59:41;;;;;;;5.27;3.80;;;;;;;;;;5060416;28;20538;-65
2022/10/27 03:02:08;;;;;;;6.50;4.30;;;;;;;;;;5055317;28;20450;-65
2022/10/27 03:04:35;;;;;;;5.27;4.77;;;;;;;;;;5054790;28;20452;-65
2022/10/27 03:07:02;;;;;;;4.93;4.53;;;;;;;;;;5054580;28;20451;-64
2022/10/27 03:09:31;;;;;;;8.60;4.83;;;;;;;;;;5054128;28;20489;-65
2022/10/27 03:11:58;;;;;;;4.90;4.20;;;;;;;;;;5054275;28;20453;-65
2022/10/27 03:14:25;;;;;;;4.93;4.53;;;;;;;;;;5054287;28;20855;-65
2022/10/27 03:16:52;;;;;;;6.20;4.57;;;;;;;;;;5053799;28;21023;-65
2022/10/27 03:19:19;;;;;;;5.00;4.07;;;;;;;;;;5053658;28;20469;-66
2022/10/27 03:21:46;;;;;;;9.10;5.10;;;;;;;;;;5053640;28;20450;-65
2022/10/27 03:24:13;;;;;;;5.60;5.10;;;;;;;;;;5054165;28;20450;-65
2022/10/27 03:26:41;;;;;;;16.93;4.77;;;;;;;;;;5053989;28;20446;-65
2022/10/27 03:29:08;;;;;;;4.33;3.67;;;;;;;;;;5053937;28;20470;-66
2022/10/27 03:31:35;;;;;;;4.93;4.43;;;;;;;;;;5053681;28;20950;-65
2022/10/27 03:34:02;;;;;;;6.93;4.57;;;;;;;;;;5053479;28;20926;-64
2022/10/27 03:36:29;;;;;;;9.03;4.60;;;;;;;;;;5053414;28;20482;-66
2022/10/27 03:38:56;;;;;;;5.50;4.87;;;;;;;;;;5053817;28;20821;-67
2022/10/27 03:41:24;;;;;;;7.23;4.30;;;;;;;;;;5053674;28;20803;-65
2022/10/27 03:43:52;;;;;;;6.10;4.77;;;;;;;;;;5053531;28;20444;-66
2022/10/27 03:46:19;;;;;;;4.63;4.20;;;;;;;;;;5053418;28;20454;-66
2022/10/27 03:48:46;;;;;;;7.30;4.90;;;;;;;;;;5053543;28;20447;-66
2022/10/27 03:51:13;;;;;;;7.83;4.30;;;;;;;;;;5052926;28;20461;-65
2022/10/27 03:53:40;;;;;;;4.93;4.30;;;;;;;;;;5052857;28;20949;-66
2022/10/27 03:56:08;;;;;;;6.73;4.70;;;;;;;;;;5052983;28;20882;-66
2022/10/27 03:58:35;;;;;;;8.00;5.60;;;;;;;;;;5053031;28;20442;-65
2022/10/27 04:01:04;;;;;;;6.63;4.63;;;;;;;;;;5052423;28;20469;-64
2022/10/27 04:03:31;;;;;;;7.37;5.00;;;;;;;;;;5053073;28;20473;-66
2022/10/27 04:05:59;;;;;;;5.97;5.27;;;;;;;;;;5053056;28;20441;-65
2022/10/27 04:10:29;;;;;;;11.27;5.47;;;;;;;;;;5092054;27;20576;-65
2022/10/27 04:12:57;;;;;;;6.40;5.17;;;;;;;;;;5091857;28;20455;-66
2022/10/27 04:15:25;;;;;;;13.50;4.90;;;;;;;;;;5092161;28;20448;-64
2022/10/27 04:17:53;;;;;;;9.40;5.07;;;;;;;;;;5091242;28;20440;-66
2022/10/27 04:20:20;;;;;;;5.83;5.27;;;;;;;;;;5091032;28;20465;-65
2022/10/27 04:22:47;;;;;;;10.37;5.87;;;;;;;;;;5091438;28;20446;-66
2022/10/27 04:25:14;;;;;;;5.73;5.03;;;;;;;;;;5090661;28;20449;-66
2022/10/27 04:27:43;;;;;;;5.47;4.97;;;;;;;;;;5090977;28;20448;-65
2022/10/27 04:30:10;;;;;;;5.93;5.33;;;;;;;;;;5090459;28;20484;-66
2022/10/27 04:32:38;;;;;;;6.50;5.80;;;;;;;;;;5091194;28;20444;-66
2022/10/27 04:35:05;;;;;;;8.70;5.73;;;;;;;;;;5090743;28;21004;-65
2022/10/27 04:37:32;;;;;;;11.00;6.07;;;;;;;;;;5090480;28;20452;-64
2022/10/27 04:40:00;;;;;;;9.70;6.00;;;;;;;;;;5090586;28;20559;-66
2022/10/27 04:42:27;;;;;;;7.67;5.80;;;;;;;;;;5090865;28;20448;-65
2022/10/27 04:44:55;;;;;;;9.63;6.30;;;;;;;;;;5104507;28;20455;-66
2022/10/27 04:47:22;;;;;;;7.30;5.30;;;;;;;;;;5102866;28;20441;-66
2022/10/27 04:49:49;;;;;;;11.30;5.90;;;;;;;;;;5091196;28;21016;-66
2022/10/27 04:52:16;;;;;;;7.07;5.73;;;;;;;;;;5090228;28;20944;-65
2022/10/27 04:54:43;;;;;;;10.23;6.63;;;;;;;;;;5090787;28;20464;-66
2022/10/27 04:57:10;;;;;;;7.87;5.83;;;;;;;;;;5090985;28;20445;-64
2022/10/27 04:59:37;;;;;;;10.13;6.87;;;;;;;;;;5090188;28;20829;-64
2022/10/27 05:02:06;;;;;;;9.20;6.50;;;;;;;;;;5090086;28;20959;-66
2022/10/27 05:04:33;;;;;;;11.00;8.00;;;;;;;;;;5090576;28;20815;-65
2022/10/27 05:07:00;;;;;;;8.83;6.20;;;;;;;;;;5089524;28;20822;-65
2022/10/27 05:09:27;;;;;;;7.57;6.20;;;;;;;;;;5089306;28;21019;-66
2022/10/27 05:11:54;;;;;;;7.47;5.80;;;;;;;;;;5089832;28;20441;-65
2022/10/27 05:14:21;;;;;;;10.37;6.30;;;;;;;;;;5090226;28;20460;-66
2022/10/27 05:16:48;;;;;;;11.17;7.20;;;;;;;;;;5089817;28;20445;-65
2022/10/27 05:19:17;;;;;;;7.27;6.23;;;;;;;;;;5089359;28;20460;-65
2022/10/27 05:21:44;;;;;;;9.63;7.20;;;;;;;;;;5076504;28;20823;-65
2022/10/27 05:24:11;;;;;;;9.10;7.00;;;;;;;;;;5075721;28;20453;-65
2022/10/27 05:26:38;;;;;;;10.03;7.57;;;;;;;;;;5075514;28;20467;-66
2022/10/27 05:29:05;;;;;;;8.33;6.80;;;;;;;;;;5075681;28;20470;-64
2022/10/27 05:31:32;;;;;;;6.30;5.70;;;;;;;;;;5075460;28;20457;-66
2022/10/27 05:33:59;;;;;;;10.20;6.57;;;;;;;;;;5075620;28;20449;-66
2022/10/27 05:36:27;;;;;;;7.60;6.27;;;;;;;;;;5075251;28;20525;-66
2022/10/27 05:38:54;;;;;;;7.57;6.80;;;;;;;;;;5076135;28;20949;-66
2022/10/27 05:41:21;;;;;;;12.63;7.20;;;;;;;;;;5075867;28;20436;-65
2022/10/27 05:43:49;;;;;;;11.73;7.07;;;;;;;;;;5075343;28;20964;-63
2022/10/27 05:46:16;;;;;;;10.90;7.90;;;;;;;;;;5075548;28;20447;-66
2022/10/27 05:48:43;;;;;;;10.73;7.47;;;;;;;;;;5075279;28;20445;-66
2022/10/27 05:51:10;;;;;;;12.77;6.87;;;;;;;;;;5075244;28;20469;-65
2022/10/27 05:53:38;;;;;;;8.10;6.83;;;;;;;;;;5075068;28;20471;-66
2022/10/27 05:56:05;;;;;;;8.87;7.33;;;;;;;;;;5075791;28;20450;-66
2022/10/27 05:58:32;;;;;;;11.93;7.87;;;;;;;;;;5076586;28;20454;-65
2022/10/27 06:01:00;;;;;;;11.17;8.00;;;;;;;;;;5075444;28;20477;-65
2022/10/27 06:03:27;;;;;;;8.00;6.63;;;;;;;;;;5077837;28;20452;-66
2022/10/27 06:05:54;;;;;;;14.87;7.67;;;;;;;;;;5078095;28;20450;-66
2022/10/27 06:08:22;;;;;;;11.20;7.40;;;;;;;;;;5076827;28;20461;-65
2022/10/27 06:10:51;;;;;;;13.43;7.50;;;;;;;;;;5075444;28;20998;-65
2022/10/27 06:13:18;;;;;;;11.70;7.20;;;;;;;;;;5077658;28;20959;-66
2022/10/27 06:15:45;;;;;;;10.17;7.80;;;;;;;;;;5078531;28;20507;-65
2022/10/27 06:18:13;;;;;;;8.67;7.73;;;;;;;;;;5093406;28;20497;-67
2022/10/27 06:20:40;;;;;;;9.50;8.47;;;;;;;;;;5072133;28;20464;-66
2022/10/27 06:23:07;;;;;;;10.07;8.40;;;;;;;;;;5067609;28;20443;-66
2022/10/27 06:25:34;;;;;;;9.57;7.67;;;;;;;;;;5067963;28;20515;-65
2022/10/27 06:28:02;;;;;;;8.50;7.60;;;;;;;;;;5057510;28;20451;-65
2022/10/27 06:30:29;;;;;;;9.53;7.03;;;;;;;;;;5066291;28;20495;-64
2022/10/27 06:32:57;;;;;;;8.90;7.93;;;;;;;;;;5060506;28;20440;-65
2022/10/27 06:35:24;;;;;;;9.33;7.80;;;;;;;;;;5055315;28;20454;-65
2022/10/27 06:37:51;;;;;;;9.17;7.27;;;;;;;;;;5054657;28;20451;-65
2022/10/27 06:40:19;;;;;;;10.53;7.80;;;;;;;;;;5054648;28;20461;-66
2022/10/27 06:42:48;;;;;;;8.83;7.73;;;;;;;;;;5055699;28;20447;-67
2022/10/27 06:45:17;;;;;;;8.20;7.20;;;;;;;;;;5054439;28;20520;-66
2022/10/27 06:47:44;;;;;;;10.03;8.00;;;;;;;;;;5054668;28;20451;-65
2022/10/27 06:50:12;;;;;;;10.47;7.70;;;;;;;;;;5054062;28;20494;-65
2022/10/27 06:52:39;;;;;;;9.20;6.90;;;;;;;;;;5055896;28;20459;-66
2022/10/27 06:55:08;;;;;;;11.40;7.33;;;;;;;;;;5054056;28;20934;-67
2022/10/27 06:57:39;;;;;;;10.63;7.10;;;;;;;;;;5053739;28;20874;-66
2022/10/27 07:00:07;;;;;;;11.00;7.20;;;;;;;;;;5053088;28;20467;-66
2022/10/27 07:02:35;;;;;;;7.60;6.80;;;;;;;;;;5053595;28;20873;-66
2022/10/27 07:05:03;;;;;;;9.47;6.17;;;;;;;;;;5053929;28;20810;-67
2022/10/27 07:07:30;;;;;;;9.90;7.00;;;;;;;;;;5054438;28;20535;-66
2022/10/27 07:09:57;;;;;;;10.23;6.93;;;;;;;;;;5053178;28;20491;-67
2022/10/27 07:12:24;;;;;;;8.57;6.30;;;;;;;;;;5053436;28;20448;-66
2022/10/27 07:14:51;;;;;;;8.03;6.93;;;;;;;;;;5053776;28;20440;-66
2022/10/27 07:17:18;;;;;;;6.87;5.97;;;;;;;;;;5053637;28;20451;-67
2022/10/27 07:19:46;;;;;;;6.80;6.10;;;;;;;;;;5053632;28;20471;-66
2022/10/27 07:22:13;;;;;;;7.03;6.00;;;;;;;;;;5053798;28;20454;-66
2022/10/27 07:24:40;;;;;;;8.40;6.23;;;;;;;;;;5053378;28;20457;-66
2022/10/27 07:27:07;;;;;;;9.63;6.17;;;;;;;;;;5052971;28;20913;-67
2022/10/27 07:29:34;;;;;;;9.63;6.47;;;;;;;;;;5053357;28;20482;-65
2022/10/27 07:32:01;;;;;;;13.27;6.03;;;;;;;;;;5052721;28;20449;-65
2022/10/27 07:34:28;;;;;;;8.13;6.20;;;;;;;;;;5072863;28;20450;-65
2022/10/27 07:36:57;;;;;;;7.43;6.23;;;;;;;;;;5067714;28;20446;-65
2022/10/27 07:39:24;;;;;;;9.33;6.17;;;;;;;;;;5065712;28;20473;-65
2022/10/27 07:41:51;;;;;;;7.80;6.50;;;;;;;;;;5063842;28;20482;-65
2022/10/27 07:44:18;;;;;;;8.47;5.97;;;;;;;;;;5064490;28;20455;-65
2022/10/27 07:46:45;;;;;;;8.30;5.47;;;;;;;;;;5073102;28;20450;-65
2022/10/27 07:49:12;;;;;;;6.50;5.87;;;;;;;;;;5072907;28;20844;-65
2022/10/27 07:51:39;;;;;;;6.83;5.63;;;;;;;;;;5073791;28;20797;-66
2022/10/27 07:54:08;;;;;;;11.13;5.80;;;;;;;;;;5073495;28;20934;-65
2022/10/27 07:56:36;;;;;;;8.33;6.20;;;;;;;;;;5072674;28;20446;-66
2022/10/27 07:59:03;;;;;;;8.50;5.93;;;;;;;;;;5059946;28;20482;-68
2022/10/27 08:01:30;;;;;;;5.73;5.20;;;;;;;;;;5073799;28;20445;-66
2022/10/27 08:03:57;;;;;;;11.00;6.30;;;;;;;;;;5074375;28;20552;-66
2022/10/27 08:06:24;;;;;;;6.03;4.93;;;;;;;;;;5073655;28;20449;-65
2022/10/27 08:08:51;;;;;;;8.30;4.97;;;;;;;;;;5073547;28;20456;-65
2022/10/27 08:11:21;;;;;;;5.73;4.47;;;;;;;;;;5073352;28;20482;-64
2022/10/27 08:13:48;;;;;;;13.27;5.67;;;;;;;;;;5072803;28;20459;-65
2022/10/27 08:16:15;;;;;;;7.73;4.83;;;;;;;;;;5060890;28;20534;-67
2022/10/27 08:18:42;;;;;;;7.53;5.17;;;;;;;;;;5062900;28;20453;-65
2022/10/27 08:21:09;;;;;;;9.07;5.00;;;;;;;;;;5058740;28;20470;-66
2022/10/27 08:23:37;;;;;;;6.10;5.50;;;;;;;;;;5053982;28;20442;-67
2022/10/27 08:26:04;;;;;;;8.00;5.57;;;;;;;;;;5053550;28;20458;-64
2022/10/27 08:28:32;;;;;;;7.10;5.50;;;;;;;;;;5054043;28;20552;-66
2022/10/27 08:30:59;;;;;;;5.80;5.27;;;;;;;;;;5054314;28;20481;-65
2022/10/27 08:33:26;;;;;;;6.20;5.60;;;;;;;;;;5054390;28;20826;-65
2022/10/27 08:35:53;;;;;;;6.60;5.30;;;;;;;;;;5053793;28;20452;-66
2022/10/27 08:38:21;;;;;;;9.53;4.90;;;;;;;;;;5054320;28;20443;-65
2022/10/27 08:40:56;;;;;;;5.60;4.80;;;;;;;;;;5053373;28;20479;-65
2022/10/27 08:43:38;;;;;;;7.17;5.60;;;;;;;;;;5054140;28;20438;-65
2022/10/27 08:46:12;;;;;;;8.33;5.50;;;;;;;;;;5047361;28;20450;-65
2022/10/27 08:48:40;;;;;;;6.77;5.10;;;;;;;;;;5056475;28;20434;-65
2022/10/27 08:51:12;;;;;;;5.77;5.17;;;;;;;;;;5053858;28;20494;-63
2022/10/27 08:53:40;;;;;;;6.20;5.40;;;;;;;;;;5053035;28;20449;-63
2022/10/27 08:56:09;;;;;;;6.50;4.77;;;;;;;;;;5054957;28;20446;-63
2022/10/27 08:58:37;;;;;;;12.53;6.20;;;;;;;;;;5057410;28;20454;-63
2022/10/27 09:01:10;;;;;;;6.53;4.53;;;;;;;;;;5059311;28;20920;-63
2022/10/27 09:03:45;;;;;;;7.20;5.40;;;;;;;;;;5077749;28;20414;-63
2022/10/27 09:06:15;;;;;;;10.40;4.83;;;;;;;;;;5078447;28;20446;-63
2022/10/27 09:08:48;;;;;;;6.43;3.90;;;;;;;;;;5076983;28;20460;-63
2022/10/27 09:11:20;;;;;;;6.07;4.77;;;;;;;;;;5077325;28;20485;-63
2022/10/27 09:13:54;;;;;;;5.57;4.60;;;;;;;;;;5077770;28;20443;-65
2022/10/27 09:16:27;;;;;;;7.90;4.37;;;;;;;;;;5077062;28;20901;-63
2022/10/27 09:18:57;;;;;;;6.93;4.70;;;;;;;;;;5076517;28;20981;-64
2022/10/27 09:21:25;;;;;;;5.17;3.73;;;;;;;;;;5076509;28;20443;-63
2022/10/27 09:23:53;;;;;;;7.23;4.37;;;;;;;;;;5076614;28;20450;-63
2022/10/27 09:26:21;;;;;;;8.73;3.40;;;;;;;;;;5085438;28;20454;-64
2022/10/27 09:28:51;;;;;;;5.23;3.77;;;;;;;;;;5087837;28;20457;-61
2022/10/27 09:31:20;;;;;;;7.03;4.33;;;;;;;;;;5086363;28;20990;-64
2022/10/27 09:33:50;;;;;;;6.57;3.90;;;;;;;;;;5087255;28;20454;-64
2022/10/27 09:36:20;;;;;;;4.43;3.97;;;;;;;;;;5081802;28;20509;-63
2022/10/27 09:38:47;;;;;;;4.73;4.10;;;;;;;;;;5076911;28;20435;-65
2022/10/27 09:41:14;;;;;;;18.03;4.87;;;;;;;;;;5071549;28;20440;-63
2022/10/27 09:43:41;;;;;;;4.17;3.60;;;;;;;;;;5075921;28;20444;-64
2022/10/27 09:46:12;;;;;;;7.23;3.47;;;;;;;;;;5076009;28;20452;-63
2022/10/27 09:48:39;;;;;;;5.90;4.17;;;;;;;;;;5075690;28;20469;-64
2022/10/27 09:51:09;;;;;;;6.60;3.50;;;;;;;;;;5075753;28;20984;-65
2022/10/27 09:53:38;;;;;;;5.00;3.90;;;;;;;;;;5075734;28;20478;-64
2022/10/27 09:56:06;;;;;;;5.20;3.90;;;;;;;;;;5077883;28;20447;-64
2022/10/27 09:58:41;;;;;;;4.50;3.40;;;;;;;;;;5079415;28;20440;-62
2022/10/27 10:01:08;;;;;;;11.77;3.90;;;;;;;;;;5079919;28;20527;-63
2022/10/27 10:03:35;;;;;;;5.60;3.40;;;;;;;;;;5075320;28;20463;-63
2022/10/27 10:06:03;;;;;;;5.23;3.27;;;;;;;;;;5076466;28;20445;-63
2022/10/27 10:08:32;;;;;;;6.20;4.00;;;;;;;;;;5075544;28;20465;-64
2022/10/27 10:11:01;;;;;;;4.17;3.30;;;;;;;;;;5077829;28;20641;-63
2022/10/27 10:13:29;;;;;;;4.20;3.30;;;;;;;;;;5082981;28;20456;-63
2022/10/27 10:16:07;;;;;;;4.83;3.10;;;;;;;;;;5082856;28;20454;-64
2022/10/27 10:18:35;;;;;;;5.47;2.90;;;;;;;;;;5076442;28;20933;-64
2022/10/27 10:21:03;;;;;;;4.47;3.43;;;;;;;;;;5076859;28;20830;-64
2022/10/27 10:23:31;;;;;;;3.40;2.83;;;;;;;;;;5067523;28;20449;-64
2022/10/27 10:25:59;;;;;;;4.13;3.73;;;;;;;;;;5081558;28;20445;-63
2022/10/27 10:28:31;;;;;;;4.93;3.30;;;;;;;;;;5076405;28;20450;-64
2022/10/27 10:30:59;;;;;;;4.10;3.47;;;;;;;;;;5061289;28;20542;-65
2022/10/27 10:33:28;;;;;;;5.57;4.00;;;;;;;;;;5073322;28;21004;-66
2022/10/27 10:35:57;;;;;;;4.07;3.63;;;;;;;;;;5083328;28;20452;-66
2022/10/27 10:38:33;;;;;;;3.53;3.23;;;;;;;;;;5086670;28;20475;-65
2022/10/27 10:41:01;;;;;;;4.90;3.57;;;;;;;;;;5081792;28;20521;-65
2022/10/27 10:43:30;;;;;;;6.03;3.53;;;;;;;;;;5077336;28;20446;-66
2022/10/27 10:45:57;;;;;;;5.20;2.93;;;;;;;;;;5075841;28;20452;-65
2022/10/27 10:48:30;;;;;;;6.27;3.70;;;;;;;;;;5075461;28;20457;-64
2022/10/27 10:50:57;;;;;;;4.50;3.03;;;;;;;;;;5075314;28;20541;-64
2022/10/27 10:53:26;;;;;;;6.30;3.47;;;;;;;;;;5074834;28;20529;-65
2022/10/27 10:55:55;;;;;;;3.40;3.10;;;;;;;;;;5074295;28;20448;-65
2022/10/27 10:58:22;;;;;;;5.13;3.90;;;;;;;;;;5074645;28;20497;-64
2022/10/27 11:00:59;;;;;;;5.40;3.63;;;;;;;;;;5075300;28;20460;-63
2022/10/27 11:03:28;;;;;;;5.60;4.63;;;;;;;;;;5075984;28;20459;-66
2022/10/27 11:05:57;;;;;;;6.47;4.07;;;;;;;;;;5075631;28;20820;-64
2022/10/27 11:08:26;;;;;;;4.27;3.63;;;;;;;;;;5075253;28;20820;-64
2022/10/27 11:10:56;;;;;;;6.53;3.80;;;;;;;;;;5074699;28;20480;-63
2022/10/27 11:13:25;;;;;;;7.67;4.00;;;;;;;;;;5075215;28;20522;-65
2022/10/27 11:15:55;;;;;;;5.67;3.70;;;;;;;;;;5077417;28;20458;-63
2022/10/27 11:18:25;;;;;;;5.03;3.23;;;;;;;;;;5073926;28;20446;-63
2022/10/27 11:20:53;;;;;;;4.50;3.13;;;;;;;;;;5074891;28;20970;-65
2022/10/27 11:23:23;;;;;;;4.50;4.00;;;;;;;;;;5079831;28;20458;-64
2022/10/27 11:25:51;;;;;;;4.50;3.63;;;;;;;;;;5086467;28;20450;-63
2022/10/27 11:28:22;;;;;;;7.67;3.63;;;;;;;;;;5085919;28;20477;-65
2022/10/27 11:30:52;;;;;;;6.43;3.90;;;;;;;;;;5085861;28;20560;-64
2022/10/27 11:33:22;;;;;;;5.33;4.60;;;;;;;;;;5085382;28;20518;-63
2022/10/27 11:35:54;;;;;;;6.00;3.20;;;;;;;;;;5086488;28;20511;-64
2022/10/27 11:38:25;;;;;;;3.57;3.13;;;;;;;;;;5080401;28;20435;-63
2022/10/27 11:40:56;;;;;;;5.07;3.93;;;;;;;;;;5078451;28;20469;-65
2022/10/27 11:43:26;;;;;;;3.93;2.80;;;;;;;;;;5077785;28;20435;-64
2022/10/27 11:45:56;;;;;;;5.60;3.00;;;;;;;;;;5076723;28;20451;-64
2022/10/27 11:48:25;;;;;;;3.13;2.73;;;;;;;;;;5074925;28;20426;-63
2022/10/27 11:50:56;;;;;;;4.40;2.60;;;;;;;;;;5074949;28;20575;-64
2022/10/27 11:53:23;;;;;;;3.90;3.23;;;;;;;;;;5074277;28;20440;-64
2022/10/27 11:56:08;;;;;;;3.87;2.93;;;;;;;;;;5074300;28;20465;-64
2022/10/27 11:58:43;;;;;;;3.53;2.30;;;;;;;;;;5073594;28;20441;-64
2022/10/27 12:01:17;;;;;;;4.60;3.53;;;;;;;;;;5075427;28;20459;-64
2022/10/27 12:03:48;;;;;;;5.10;2.63;;;;;;;;;;5075786;28;20442;-64
2022/10/27 12:06:20;;;;;;;5.70;2.47;;;;;;;;;;5077129;28;20799;-64
2022/10/27 12:08:49;;;;;;;3.40;2.43;;;;;;;;;;5082152;28;20461;-64
2022/10/27 12:11:23;;;;;;;4.00;2.50;;;;;;;;;;5086775;28;20490;-64
2022/10/27 12:13:53;;;;;;;4.57;2.63;;;;;;;;;;5079986;28;20423;-64
2022/10/27 12:16:21;;;;;;;5.20;3.00;;;;;;;;;;5077954;28;20453;-64
2022/10/27 12:18:51;;;;;;;4.57;2.13;;;;;;;;;;5075184;28;20443;-64
2022/10/27 12:21:23;;;;;;;3.60;1.90;;;;;;;;;;5074064;28;20501;-63
2022/10/27 12:23:54;;;;;;;2.47;1.90;;;;;;;;;;5073502;28;21015;-64
2022/10/27 12:26:22;;;;;;;4.17;1.73;;;;;;;;;;5073203;28;20906;-64
2022/10/27 12:28:50;;;;;;;6.23;2.63;;;;;;;;;;5073405;28;20443;-64
2022/10/27 12:31:20;;;;;;;2.90;1.73;;;;;;;;;;5075365;28;21013;-64
2022/10/27 12:33:49;;;;;;;2.90;2.20;;;;;;;;;;5077550;28;20434;-65
2022/10/27 12:36:20;;;;;;;3.60;1.73;;;;;;;;;;5077351;28;20446;-64
2022/10/27 12:38:51;;;;;;;5.13;2.17;;;;;;;;;;5077570;28;20426;-65
2022/10/27 12:41:22;;;;;;;3.17;1.60;;;;;;;;;;5077794;28;20435;-64
2022/10/27 12:43:54;;;;;;;5.30;1.63;;;;;;;;;;5077336;28;20438;-63
2022/10/27 12:46:31;;;;;;;4.43;1.87;;;;;;;;;;5077297;28;20434;-64
2022/10/27 12:49:04;;;;;;;2.57;1.70;;;;;;;;;;5077324;28;20483;-64
2022/10/27 12:51:34;;;;;;;5.30;1.87;;;;;;;;;;5077449;28;20467;-63
2022/10/27 12:54:10;;;;;;;2.37;1.80;;;;;;;;;;5078278;28;20439;-64
2022/10/27 12:56:43;;;;;;;3.83;1.50;;;;;;;;;;5077035;28;20427;-64
2022/10/27 12:59:15;;;;;;;2.30;1.60;;;;;;;;;;5076850;28;20973;-63
2022/10/27 13:01:46;;;;;;;2.40;1.77;;;;;;;;;;5077292;28;20874;-64
2022/10/27 13:04:26;;;;;;;1.47;1.17;;;;;;;;;;5077500;28;20437;-64
2022/10/27 13:07:07;;;;;;;2.23;1.57;;;;;;;;;;5076762;28;20434;-65
2022/10/27 13:09:46;;;;;;;4.40;1.73;;;;;;;;;;5076910;28;20520;-64
2022/10/27 13:12:37;;;;;;;4.10;1.73;;;;;;;;;;5077404;28;20474;-65
2022/10/27 13:15:37;;;;;;;3.83;1.77;;;;;;;;;;5062925;28;20450;-64
2022/10/27 13:18:13;;;;;;;3.03;1.70;;;;;;;;;;5078566;28;20430;-64
2022/10/27 13:20:45;;;;;;;2.90;1.40;;;;;;;;;;5078069;28;20469;-65
2022/10/27 13:23:18;;;;;;;3.97;1.67;;;;;;;;;;5078027;28;20854;-64
2022/10/27 13:25:50;;;;;;;2.60;1.70;;;;;;;;;;5079103;28;20434;-64
2022/10/27 13:28:19;;;;;;;4.70;1.70;;;;;;;;;;5078372;28;20441;-64
2022/10/27 13:30:53;;;;;;;3.60;1.50;;;;;;;;;;5077978;28;20481;-65
2022/10/27 13:33:35;;;;;;;2.83;1.73;;;;;;;;;;5078163;28;20419;-65
2022/10/27 13:36:19;;;;;;;5.50;2.20;;;;;;;;;;5077243;28;20445;-65
2022/10/27 13:38:46;;;;;;;3.87;2.27;;;;;;;;;;5077380;28;20977;-65
2022/10/27 13:41:38;;;;;;;2.63;1.80;;;;;;;;;;5077613;28;20549;-65
2022/10/27 13:44:05;;;;;;;2.40;1.90;;;;;;;;;;5077027;28;20530;-65
2022/10/27 13:46:50;;;;;;;3.57;2.17;;;;;;;;;;5077740;28;20450;-64
2022/10/27 13:49:32;;;;;;;2.40;1.83;;;;;;;;;;5078027;28;20465;-65
2022/10/27 13:52:11;;;;;;;2.90;2.30;;;;;;;;;;5076977;28;20485;-64
2022/10/27 13:54:54;;;;;;;3.10;2.10;;;;;;;;;;5077878;28;20516;-63
2022/10/27 13:57:36;;;;;;;2.53;2.33;;;;;;;;;;5078207;28;20449;-63
2022/10/27 14:00:07;;;;;;;3.83;2.40;;;;;;;;;;5077111;28;20473;-64
2022/10/27 14:02:37;;;;;;;5.10;2.10;;;;;;;;;;5077425;28;20447;-65
2022/10/27 14:05:06;;;;;;;2.80;2.30;;;;;;;;;;5077271;28;20426;-61
2022/10/27 14:07:35;;;;;;;5.00;2.40;;;;;;;;;;5076621;28;20444;-64
2022/10/27 14:10:03;;;;;;;11.03;2.43;;;;;;;;;;5076570;28;20514;-64
2022/10/27 14:12:34;;;;;;;2.70;2.07;;;;;;;;;;5077215;28;20986;-64
2022/10/27 14:15:03;;;;;;;3.17;1.67;;;;;;;;;;5076694;28;20451;-64
2022/10/27 14:17:31;;;;;;;6.20;2.40;;;;;;;;;;5076562;28;20445;-62
2022/10/27 14:20:00;;;;;;;3.80;2.20;;;;;;;;;;5075796;28;20489;-64
2022/10/27 14:22:30;;;;;;;2.80;1.90;;;;;;;;;;5075870;28;20438;-64
2022/10/27 14:24:58;;;;;;;3.00;2.13;;;;;;;;;;5076464;28;20435;-63
2022/10/27 14:27:25;;;;;;;4.57;2.57;;;;;;;;;;5076285;28;20500;-64
2022/10/27 14:30:03;;;;;;;3.00;2.30;;;;;;;;;;5076041;28;20573;-65
2022/10/27 14:32:30;;;;;;;4.00;2.63;;;;;;;;;;5076190;28;20972;-63
2022/10/27 14:35:14;;;;;;;3.60;2.20;;;;;;;;;;5076208;28;20445;-61
2022/10/27 14:37:42;;;;;;;5.07;2.97;;;;;;;;;;5075438;28;20470;-62
2022/10/27 14:40:14;;;;;;;2.90;2.10;;;;;;;;;;5075522;28;20493;-63
2022/10/27 14:42:41;;;;;;;7.67;3.10;;;;;;;;;;5075220;28;20426;-62
2022/10/27 14:45:13;;;;;;;4.80;2.17;;;;;;;;;;5075593;28;20449;-63
2022/10/27 14:47:42;;;;;;;4.43;2.60;;;;;;;;;;5075682;28;20422;-64
2022/10/27 14:50:13;;;;;;;4.33;2.13;;;;;;;;;;5075302;28;20462;-64
2022/10/27 14:52:41;;;;;;;6.03;2.50;;;;;;;;;;5074008;28;20465;-64
2022/10/27 14:55:16;;;;;;;5.37;2.83;;;;;;;;;;5075677;28;20456;-64
2022/10/27 14:57:43;;;;;;;6.30;2.43;;;;;;;;;;5075050;28;20440;-65